createdAt,value
2022-10-07T00:00:53.763Z,100242.63
2022-10-07T00:03:55.940Z,100249.41
2022-10-07T00:06:57.964Z,100243.84
2022-10-07T00:10:00.188Z,100244.00
2022-10-07T00:13:02.633Z,100230.00
2022-10-07T00:16:17.373Z,100231.63
2022-10-07T00:19:20.057Z,100240.56
2022-10-07T00:22:22.052Z,100240.78
2022-10-07T00:25:24.185Z,100232.91
2022-10-07T00:28:26.245Z,100231.34
2022-10-07T00:31:31.232Z,100231.34
2022-10-07T00:34:33.111Z,100232.44
2022-10-07T00:37:36.241Z,100226.38
2022-10-07T00:41:04.789Z,100221.56
2022-10-07T00:44:34.750Z,100199.53
2022-10-07T00:47:36.810Z,100213.59
2022-10-07T00:50:38.791Z,100212.75
2022-10-07T00:53:42.069Z,100216.88
2022-10-07T00:56:46.512Z,100213.72
2022-10-07T00:59:48.515Z,100210.94
2022-10-07T01:02:51.669Z,100198.50
2022-10-07T01:05:53.471Z,100197.06
2022-10-07T01:08:55.578Z,100171.81
2022-10-07T01:12:11.117Z,100193.69
2022-10-07T01:15:32.545Z,100184.91
2022-10-07T01:18:44.657Z,100178.06
2022-10-07T01:22:19.947Z,100166.88
2022-10-07T01:25:32.208Z,100160.47
2022-10-07T01:28:55.231Z,100170.94
2022-10-07T01:32:04.954Z,100141.75
2022-10-07T01:35:12.998Z,100157.94
2022-10-07T01:38:19.837Z,100146.78
2022-10-07T01:41:23.777Z,100120.25
2022-10-07T01:44:29.826Z,100134.38
2022-10-07T01:47:33.550Z,100125.25
2022-10-07T01:50:37.450Z,100109.72
2022-10-07T01:54:10.571Z,100112.72
2022-10-07T01:57:29.763Z,100090.75
2022-10-07T02:00:38.480Z,100117.91
2022-10-07T02:04:03.003Z,100116.63
2022-10-07T02:07:17.861Z,100112.78
2022-10-07T02:10:28.483Z,100114.06
2022-10-07T02:14:07.318Z,100112.16
2022-10-07T02:17:18.931Z,100109.47
2022-10-07T02:20:25.432Z,100106.44
2022-10-07T02:23:28.946Z,100074.59
2022-10-07T02:26:34.290Z,100100.28
2022-10-07T02:29:40.059Z,100055.00
2022-10-07T02:32:48.258Z,100092.31
2022-10-07T02:36:10.698Z,100031.94
2022-10-07T02:39:15.548Z,100046.56
2022-10-07T02:42:43.378Z,100080.66
2022-10-07T02:46:07.440Z,100081.47
2022-10-07T02:49:13.450Z,100073.66
2022-10-07T02:52:19.266Z,100081.53
2022-10-07T02:55:27.897Z,100071.00
2022-10-07T02:58:29.934Z,100064.47
2022-10-07T03:01:45.351Z,100079.44
2022-10-07T03:04:49.042Z,100072.44
2022-10-07T03:08:11.320Z,100051.50
2022-10-07T03:11:16.170Z,100065.50
2022-10-07T03:14:19.089Z,100073.88
2022-10-07T03:17:21.777Z,100056.59
2022-10-07T03:20:24.951Z,100077.19
2022-10-07T03:23:31.376Z,100073.31
2022-10-07T03:26:34.376Z,100068.94
2022-10-07T03:29:36.858Z,100063.00
2022-10-07T03:32:41.430Z,100068.50
2022-10-07T03:35:45.076Z,100055.78
2022-10-07T03:38:48.222Z,100052.38
2022-10-07T03:41:51.533Z,100056.53
2022-10-07T03:44:53.559Z,100051.94
2022-10-07T03:47:56.670Z,100048.09
2022-10-07T03:50:59.330Z,100045.34
2022-10-07T03:54:03.823Z,100043.44
2022-10-07T03:57:27.578Z,100051.38
2022-10-07T04:00:31.019Z,100049.38
2022-10-07T04:03:33.782Z,100036.72
2022-10-07T04:06:35.940Z,100039.88
2022-10-07T04:09:41.408Z,100038.94
2022-10-07T04:12:47.404Z,100027.59
2022-10-07T04:15:51.568Z,100035.75
2022-10-07T04:18:58.855Z,100043.16
2022-10-07T04:22:08.327Z,100033.34
2022-10-07T04:25:31.134Z,100044.13
2022-10-07T04:28:34.152Z,100032.41
2022-10-07T04:31:43.820Z,100037.75
2022-10-07T04:34:45.891Z,100035.56
2022-10-07T04:37:54.197Z,100034.72
2022-10-07T04:41:02.576Z,100034.09
2022-10-07T04:44:04.453Z,100026.38
2022-10-07T04:47:11.928Z,100002.75
2022-10-07T04:50:14.366Z,100036.91
2022-10-07T04:53:16.915Z,100034.03
2022-10-07T04:56:21.765Z,100019.50
2022-10-07T04:59:27.953Z,100029.56
2022-10-07T05:02:31.976Z,100019.31
2022-10-07T05:05:34.598Z,100015.47
2022-10-07T05:08:36.972Z,100027.91
2022-10-07T05:11:40.384Z,100013.69
2022-10-07T05:14:48.144Z,100022.16
2022-10-07T05:17:53.029Z,100010.72
2022-10-07T05:20:56.007Z,100024.28
2022-10-07T05:24:00.226Z,99999.03
2022-10-07T05:27:15.740Z,100013.13
2022-10-07T05:30:19.203Z,99997.38
2022-10-07T05:33:21.194Z,100014.84
2022-10-07T05:36:25.096Z,100005.41
2022-10-07T05:39:30.087Z,100010.81
2022-10-07T05:42:49.149Z,100009.53
2022-10-07T05:46:01.575Z,100008.44
2022-10-07T05:49:06.314Z,100005.09
2022-10-07T05:52:10.498Z,100002.25
2022-10-07T05:55:13.547Z,99962.88
2022-10-07T05:58:15.786Z,99995.88
2022-10-07T06:01:19.926Z,100004.16
2022-10-07T06:04:22.342Z,99989.59
2022-10-07T06:07:29.324Z,99965.22
2022-10-07T06:10:56.695Z,99973.25
2022-10-07T06:14:01.588Z,100001.84
2022-10-07T06:17:06.100Z,99941.19
2022-10-07T06:20:15.615Z,99998.41
2022-10-07T06:23:23.893Z,99978.16
2022-10-07T06:26:26.346Z,99934.72
2022-10-07T06:29:34.924Z,99950.72
2022-10-07T06:32:37.283Z,99990.16
2022-10-07T06:35:39.843Z,99995.75
2022-10-07T06:38:46.469Z,99987.81
2022-10-07T06:41:48.894Z,99990.84
2022-10-07T06:45:00.418Z,99996.16
2022-10-07T06:48:02.747Z,99999.66
2022-10-07T06:51:06.122Z,99985.81
2022-10-07T06:54:13.007Z,99978.13
2022-10-07T06:57:43.592Z,99992.97
2022-10-07T07:00:39.463Z,99982.47
2022-10-07T07:03:42.414Z,99992.47
2022-10-07T07:06:44.977Z,99995.34
2022-10-07T07:09:46.964Z,100001.72
2022-10-07T07:12:49.029Z,99995.34
2022-10-07T07:15:57.435Z,100000.31
2022-10-07T07:19:03.312Z,99990.72
2022-10-07T07:22:06.084Z,100001.09
2022-10-07T07:25:10.104Z,100006.56
2022-10-07T07:28:15.647Z,100005.00
2022-10-07T07:31:18.430Z,99984.06
2022-10-07T07:34:21.698Z,99998.09
2022-10-07T07:37:24.913Z,99983.09
2022-10-07T07:40:29.923Z,99994.34
2022-10-07T07:43:36.144Z,99987.69
2022-10-07T07:46:43.458Z,99981.97
2022-10-07T07:49:46.352Z,99987.88
2022-10-07T07:52:57.482Z,99977.19
2022-10-07T07:56:02.543Z,100000.63
2022-10-07T07:59:08.212Z,100001.78
2022-10-07T08:02:12.706Z,100004.19
2022-10-07T08:05:23.876Z,100004.75
2022-10-07T08:08:31.221Z,99989.72
2022-10-07T08:11:33.951Z,99978.59
2022-10-07T08:14:38.372Z,100004.84
2022-10-07T08:17:41.188Z,99994.34
2022-10-07T08:20:43.412Z,99999.50
2022-10-07T08:23:48.594Z,99995.91
2022-10-07T08:26:56.393Z,99961.81
2022-10-07T08:29:58.669Z,99985.09
2022-10-07T08:33:01.618Z,99965.78
2022-10-07T08:36:05.304Z,99998.50
2022-10-07T08:39:07.539Z,99959.19
2022-10-07T08:42:18.600Z,99965.28
2022-10-07T08:45:31.922Z,99963.00
2022-10-07T08:48:38.969Z,99974.28
2022-10-07T08:51:50.772Z,99958.50
2022-10-07T08:54:53.069Z,99957.47
2022-10-07T08:58:04.531Z,99959.03
2022-10-07T09:01:28.145Z,99963.78
2022-10-07T09:05:15.500Z,99962.06
2022-10-07T09:08:33.001Z,99955.88
2022-10-07T09:11:36.144Z,99946.78
2022-10-07T09:14:42.106Z,99942.09
2022-10-07T09:17:54.491Z,99934.13
2022-10-07T09:20:56.764Z,99935.88
2022-10-07T09:24:23.604Z,99930.00
2022-10-07T09:27:26.942Z,99925.56
2022-10-07T09:30:29.585Z,99920.66
2022-10-07T09:33:41.847Z,99907.88
2022-10-07T09:37:09.801Z,99911.31
2022-10-07T09:41:02.240Z,99913.34
2022-10-07T09:44:03.929Z,99914.81
2022-10-07T09:47:24.433Z,99913.59
2022-10-07T09:50:31.411Z,99914.06
2022-10-07T09:53:33.997Z,99897.44
2022-10-07T09:56:45.765Z,99896.31
2022-10-07T09:59:47.584Z,99890.78
2022-10-07T10:03:06.299Z,99894.81
2022-10-07T10:06:10.552Z,99892.50
2022-10-07T10:09:18.127Z,99885.13
2022-10-07T10:12:24.237Z,99890.78
2022-10-07T10:15:39.543Z,99882.16
2022-10-07T10:18:53.293Z,99881.41
2022-10-07T10:21:57.747Z,99884.53
2022-10-07T10:25:18.142Z,99875.88
2022-10-07T10:28:39.304Z,99865.88
2022-10-07T10:32:02.095Z,99867.13
2022-10-07T10:35:16.353Z,99848.16
2022-10-07T10:38:33.681Z,99860.81
2022-10-07T10:41:50.746Z,99861.25
2022-10-07T10:44:52.438Z,99849.56
2022-10-07T10:48:03.190Z,99844.22
2022-10-07T10:51:14.253Z,99856.09
2022-10-07T10:54:55.488Z,99846.41
2022-10-07T10:58:14.003Z,99834.81
2022-10-07T11:01:24.016Z,99837.69
2022-10-07T11:04:41.297Z,99831.66
2022-10-07T11:07:52.400Z,99823.34
2022-10-07T11:10:54.079Z,99814.94
2022-10-07T11:14:04.835Z,99798.56
2022-10-07T11:17:09.473Z,99804.44
2022-10-07T11:20:20.125Z,99813.75
2022-10-07T11:23:27.713Z,99810.09
2022-10-07T11:26:36.300Z,99797.22
2022-10-07T11:29:49.404Z,99786.78
2022-10-07T11:32:57.324Z,99790.25
2022-10-07T11:36:13.834Z,99762.06
2022-10-07T11:39:15.801Z,99783.19
2022-10-07T11:42:24.807Z,99776.47
2022-10-07T11:45:33.980Z,99747.00
2022-10-07T11:48:54.632Z,99751.09
2022-10-07T11:52:02.053Z,99758.31
2022-10-07T11:55:09.521Z,99754.88
2022-10-07T11:58:27.041Z,99732.59
2022-10-07T12:01:29.419Z,99733.06
2022-10-07T12:04:31.258Z,99733.44
2022-10-07T12:07:33.258Z,99737.78
2022-10-07T12:10:35.738Z,99730.00
2022-10-07T12:13:42.512Z,99717.03
2022-10-07T12:16:55.247Z,99724.28
2022-10-07T12:20:37.209Z,99714.97
2022-10-07T12:23:40.729Z,99714.13
2022-10-07T12:27:07.298Z,99711.66
2022-10-07T12:30:49.164Z,99709.00
2022-10-07T12:34:06.191Z,99701.63
2022-10-07T12:37:43.421Z,99702.94
2022-10-07T12:40:58.164Z,99684.94
2022-10-07T12:44:06.276Z,99690.72
2022-10-07T12:47:29.727Z,99685.19
2022-10-07T12:50:33.677Z,99661.81
2022-10-07T12:53:41.686Z,99673.66
2022-10-07T12:56:44.822Z,99668.53
2022-10-07T13:00:11.421Z,99663.06
2022-10-07T13:03:28.633Z,99665.19
2022-10-07T13:06:49.012Z,99656.63
2022-10-07T13:10:09.296Z,99655.59
2022-10-07T13:13:25.205Z,99642.50
2022-10-07T13:16:27.441Z,99641.47
2022-10-07T13:19:58.949Z,99636.44
2022-10-07T13:23:23.208Z,99628.09
2022-10-07T13:26:28.179Z,99638.97
2022-10-07T13:29:35.581Z,99636.34
2022-10-07T13:32:37.406Z,99624.66
2022-10-07T13:35:39.941Z,99605.34
2022-10-07T13:38:43.227Z,99620.16
2022-10-07T13:41:50.751Z,99605.09
2022-10-07T13:44:52.570Z,99606.66
2022-10-07T13:47:56.125Z,99604.78
2022-10-07T13:50:59.500Z,99596.84
2022-10-07T13:54:05.739Z,99584.38
2022-10-07T13:57:12.589Z,99595.97
2022-10-07T14:00:16.398Z,99583.69
2022-10-07T14:03:18.913Z,99570.25
2022-10-07T14:06:37.950Z,99581.31
2022-10-07T14:09:59.057Z,99576.56
2022-10-07T14:13:07.365Z,99578.19
2022-10-07T14:16:22.368Z,99561.34
2022-10-07T14:19:24.175Z,99547.19
2022-10-07T14:22:50.436Z,99545.56
2022-10-07T14:25:55.024Z,99541.94
2022-10-07T14:28:56.871Z,99556.59
2022-10-07T14:32:38.481Z,99544.00
2022-10-07T14:35:40.928Z,99536.47
2022-10-07T14:38:44.566Z,99520.78
2022-10-07T14:41:47.147Z,99524.72
2022-10-07T14:44:49.982Z,99522.03
2022-10-07T14:47:51.766Z,99520.41
2022-10-07T14:50:53.597Z,99494.72
2022-10-07T14:54:03.984Z,99500.91
2022-10-07T14:57:06.155Z,99499.94
2022-10-07T15:00:17.605Z,99486.16
2022-10-07T15:03:19.385Z,99502.69
2022-10-07T15:06:21.608Z,99494.81
2022-10-07T15:09:23.608Z,99493.66
2022-10-07T15:12:26.302Z,99481.81
2022-10-07T15:15:29.070Z,99481.81
2022-10-07T15:18:30.776Z,99472.06
2022-10-07T15:21:32.599Z,99472.06
2022-10-07T15:24:34.405Z,99466.16
2022-10-07T15:27:37.885Z,99449.59
2022-10-07T15:30:39.812Z,99461.44
2022-10-07T15:33:42.690Z,99449.22
2022-10-07T15:36:45.338Z,99446.09
2022-10-07T15:39:47.049Z,99445.31
2022-10-07T15:42:48.999Z,99444.16
2022-10-07T15:45:51.668Z,99438.63
2022-10-07T15:48:58.648Z,99446.03
2022-10-07T15:52:01.560Z,99446.41
2022-10-07T15:55:08.349Z,99436.19
2022-10-07T15:58:10.094Z,99432.59
2022-10-07T16:01:12.891Z,99437.75
2022-10-07T16:04:15.262Z,99438.78
2022-10-07T16:07:16.965Z,99440.22
2022-10-07T16:10:18.919Z,99421.50
2022-10-07T16:13:23.152Z,99411.09
2022-10-07T16:16:27.061Z,99440.25
2022-10-07T16:19:28.692Z,99412.38
2022-10-07T16:22:31.207Z,99429.94
2022-10-07T16:25:35.430Z,99431.00
2022-10-07T16:29:07.194Z,99439.22
2022-10-07T16:32:11.329Z,99431.00
2022-10-07T16:35:13.164Z,99450.59
2022-10-07T16:38:15.487Z,99443.41
2022-10-07T16:41:18.395Z,99439.38
2022-10-07T16:44:21.013Z,99433.56
2022-10-07T16:47:22.928Z,99435.38
2022-10-07T16:50:24.662Z,99439.00
2022-10-07T16:53:27.250Z,99417.47
2022-10-07T16:56:33.889Z,99432.69
2022-10-07T16:59:35.576Z,99434.34
2022-10-07T17:02:37.237Z,99435.00
2022-10-07T17:05:39.442Z,99414.34
2022-10-07T17:08:47.450Z,99441.50
2022-10-07T17:11:49.950Z,99434.75
2022-10-07T17:14:51.816Z,99418.41
2022-10-07T17:17:53.759Z,99432.97
2022-10-07T17:20:56.424Z,99437.53
2022-10-07T17:23:58.312Z,99436.94
2022-10-07T17:26:59.919Z,99438.69
2022-10-07T17:30:02.750Z,99428.59
2022-10-07T17:33:05.269Z,99425.03
2022-10-07T17:36:08.701Z,99425.75
2022-10-07T17:39:11.574Z,99420.66
2022-10-07T17:42:13.185Z,99423.81
2022-10-07T17:45:14.849Z,99431.06
2022-10-07T17:48:16.665Z,99421.94
2022-10-07T17:51:20.517Z,99418.72
2022-10-07T17:54:23.975Z,99433.31
2022-10-07T17:57:25.872Z,99439.31
2022-10-07T18:00:28.057Z,99437.06
2022-10-07T18:03:30.228Z,99414.16
2022-10-07T18:06:34.499Z,99430.31
2022-10-07T18:09:36.491Z,99441.22
2022-10-07T18:12:56.976Z,99426.59
2022-10-07T18:16:00.193Z,99430.53
2022-10-07T18:19:02.452Z,99411.19
2022-10-07T18:22:04.252Z,99439.22
2022-10-07T18:25:06.861Z,99448.19
2022-10-07T18:28:08.601Z,99446.66
2022-10-07T18:31:12.402Z,99443.72
2022-10-07T18:34:14.598Z,99445.19
2022-10-07T18:37:17.028Z,99440.81
2022-10-07T18:40:18.787Z,99433.00
2022-10-07T18:43:20.976Z,99423.75
2022-10-07T18:46:23.519Z,99426.38
2022-10-07T18:49:25.510Z,99429.97
2022-10-07T18:52:27.388Z,99431.78
2022-10-07T18:55:33.446Z,99429.94
2022-10-07T18:58:58.411Z,99443.66
2022-10-07T19:02:03.874Z,99402.19
2022-10-07T19:05:08.969Z,99432.84
2022-10-07T19:08:10.871Z,99421.97
2022-10-07T19:11:18.543Z,99436.03
2022-10-07T19:14:20.922Z,99438.22
2022-10-07T19:17:23.169Z,99440.16
2022-10-07T19:20:25.177Z,99424.84
2022-10-07T19:23:29.127Z,99444.34
2022-10-07T19:26:36.128Z,99444.25
2022-10-07T19:29:38.082Z,99434.44
2022-10-07T19:32:39.994Z,99406.31
2022-10-07T19:35:42.014Z,99428.38
2022-10-07T19:38:45.882Z,99426.00
2022-10-07T19:41:48.454Z,99415.47
2022-10-07T19:44:50.339Z,99424.34
2022-10-07T19:47:52.065Z,99406.38
2022-10-07T19:50:58.042Z,99404.28
2022-10-07T19:54:02.236Z,99402.84
2022-10-07T19:57:04.247Z,99426.94
2022-10-07T20:00:06.586Z,99410.16
2022-10-07T20:03:14.189Z,99432.56
2022-10-07T20:06:16.561Z,99433.38
2022-10-07T20:09:20.309Z,99425.44
2022-10-07T20:12:22.436Z,99392.75
2022-10-07T20:15:24.150Z,99426.88
2022-10-07T20:18:25.911Z,99430.63
2022-10-07T20:21:28.916Z,99426.66
2022-10-07T20:24:30.957Z,99415.75
2022-10-07T20:27:34.175Z,99455.81
2022-10-07T20:30:35.986Z,99389.69
2022-10-07T20:33:42.595Z,99394.69
2022-10-07T20:36:50.590Z,99415.88
2022-10-07T20:40:11.067Z,99407.41
2022-10-07T20:43:13.058Z,99443.84
2022-10-07T20:46:14.794Z,99441.22
2022-10-07T20:49:23.120Z,99446.31
2022-10-07T20:52:27.153Z,99423.50
2022-10-07T20:55:30.986Z,99454.19
2022-10-07T20:58:37.517Z,99439.16
2022-10-07T21:01:41.124Z,99447.06
2022-10-07T21:04:43.508Z,99440.72
2022-10-07T21:07:45.479Z,99428.09
2022-10-07T21:10:48.759Z,99444.59
2022-10-07T21:13:50.396Z,99435.81
2022-10-07T21:16:53.670Z,99427.09
2022-10-07T21:19:55.979Z,99441.59
2022-10-07T21:22:58.244Z,99422.94
2022-10-07T21:26:01.754Z,99419.88
2022-10-07T21:29:05.115Z,99417.25
2022-10-07T21:32:07.004Z,99427.47
2022-10-07T21:35:10.209Z,99414.81
2022-10-07T21:38:14.515Z,99425.09
2022-10-07T21:41:20.651Z,99413.25
2022-10-07T21:44:22.347Z,99427.72
2022-10-07T21:47:24.527Z,99401.09
2022-10-07T21:50:27.573Z,99425.66
2022-10-07T21:53:30.510Z,99422.59
2022-10-07T21:56:34.535Z,99430.41
2022-10-07T21:59:36.728Z,99441.41
2022-10-07T22:02:39.142Z,99432.38
2022-10-07T22:05:41.219Z,99437.81
2022-10-07T22:08:45.301Z,99432.72
2022-10-07T22:11:47.604Z,99423.81
2022-10-07T22:14:49.378Z,99427.44
2022-10-07T22:17:51.252Z,99422.59
2022-10-07T22:20:52.960Z,99410.00
2022-10-07T22:23:59.703Z,99422.69
2022-10-07T22:27:03.653Z,99426.63
2022-10-07T22:30:06.963Z,99420.31
2022-10-07T22:33:11.181Z,99417.38
2022-10-07T22:36:16.450Z,99411.69
2022-10-07T22:39:18.384Z,99423.66
2022-10-07T22:42:20.188Z,99416.63
2022-10-07T22:45:21.980Z,99420.50
2022-10-07T22:48:24.819Z,99417.44
2022-10-07T22:51:29.767Z,99416.72
2022-10-07T22:54:31.494Z,99409.16
2022-10-07T22:57:33.514Z,99410.13
2022-10-07T23:00:35.378Z,99403.69
2022-10-07T23:03:39.482Z,99414.22
2022-10-07T23:06:41.396Z,99391.66
2022-10-07T23:09:43.505Z,99392.28
2022-10-07T23:12:45.499Z,99397.13
2022-10-07T23:15:58.955Z,99396.63
2022-10-07T23:19:00.977Z,99396.00
2022-10-07T23:22:02.702Z,99389.00
2022-10-07T23:25:04.854Z,99391.88
2022-10-07T23:28:06.835Z,99388.00
2022-10-07T23:31:11.103Z,99401.91
2022-10-07T23:34:14.082Z,99395.94
2022-10-07T23:37:15.664Z,99390.66
2022-10-07T23:40:17.265Z,99397.59
2022-10-07T23:43:19.033Z,99388.88
2022-10-07T23:46:22.668Z,99379.41
2022-10-07T23:49:24.816Z,99376.50
2022-10-07T23:52:26.475Z,99381.41
2022-10-07T23:55:28.598Z,99391.44
2022-10-07T23:58:31.875Z,99372.38
